sensor_id;sensor_type;location;lat;lon;timestamp;P1;durP1;ratioP1;P2;durP2;ratioP2
63114;SDS011;49208;50.874;6.466;2023-01-26T07:01:09;47.90;;;16.48;;
63114;SDS011;49208;50.874;6.466;2023-01-26T07:03:40;51.53;;;16.92;;
63114;SDS011;49208;50.874;6.466;2023-01-26T07:06:05;49.42;;;16.63;;
63114;SDS011;49208;50.874;6.466;2023-01-26T07:08:31;45.38;;;17.73;;
63114;SDS011;49208;50.874;6.466;2023-01-26T07:10:57;41.13;;;14.00;;
63114;SDS011;49208;50.874;6.466;2023-01-26T07:13:22;43.95;;;16.40;;
63114;SDS011;49208;50.874;6.466;2023-01-26T07:15:48;45.75;;;16.05;;
63114;SDS011;49208;50.874;6.466;2023-01-26T07:18:13;50.80;;;18.80;;
63114;SDS011;49208;50.874;6.466;2023-01-26T07:20:38;64.03;;;16.75;;
63114;SDS011;49208;50.874;6.466;2023-01-26T07:23:04;49.05;;;17.05;;
63114;SDS011;49208;50.874;6.466;2023-01-26T07:25:29;61.80;;;19.13;;
63114;SDS011;49208;50.874;6.466;2023-01-26T07:27:58;40.80;;;15.30;;
63114;SDS011;49208;50.874;6.466;2023-01-26T07:30:23;47.08;;;15.68;;
63114;SDS011;49208;50.874;6.466;2023-01-26T07:32:49;46.83;;;15.95;;
63114;SDS011;49208;50.874;6.466;2023-01-26T07:35:15;53.22;;;17.90;;
63114;SDS011;49208;50.874;6.466;2023-01-26T07:37:40;55.10;;;17.38;;
63114;SDS011;49208;50.874;6.466;2023-01-26T07:40:06;46.50;;;14.73;;
63114;SDS011;49208;50.874;6.466;2023-01-26T07:42:31;54.30;;;17.33;;
63114;SDS011;49208;50.874;6.466;2023-01-26T07:44:57;49.78;;;16.52;;
63114;SDS011;49208;50.874;6.466;2023-01-26T07:47:23;40.63;;;16.40;;
63114;SDS011;49208;50.874;6.466;2023-01-26T07:49:49;42.22;;;15.90;;
63114;SDS011;49208;50.874;6.466;2023-01-26T07:52:14;51.03;;;14.35;;
63114;SDS011;49208;50.874;6.466;2023-01-26T07:54:40;50.22;;;17.17;;
63114;SDS011;49208;50.874;6.466;2023-01-26T07:57:05;37.83;;;13.70;;
63114;SDS011;49208;50.874;6.466;2023-01-26T07:59:33;47.45;;;15.38;;
63114;SDS011;49208;50.874;6.466;2023-01-26T08:01:59;48.97;;;17.00;;
63114;SDS011;49208;50.874;6.466;2023-01-26T08:04:24;38.17;;;13.85;;
63114;SDS011;49208;50.874;6.466;2023-01-26T08:06:50;38.55;;;13.02;;
63114;SDS011;49208;50.874;6.466;2023-01-26T08:09:16;46.03;;;14.95;;
63114;SDS011;49208;50.874;6.466;2023-01-26T08:11:41;48.85;;;16.20;;
63114;SDS011;49208;50.874;6.466;2023-01-26T08:14:06;49.95;;;16.25;;
63114;SDS011;49208;50.874;6.466;2023-01-26T08:16:32;53.78;;;18.02;;
63114;SDS011;49208;50.874;6.466;2023-01-26T08:18:57;52.03;;;16.98;;
63114;SDS011;49208;50.874;6.466;2023-01-26T08:21:22;42.67;;;14.70;;
63114;SDS011;49208;50.874;6.466;2023-01-26T08:23:48;46.65;;;16.83;;
63114;SDS011;49208;50.874;6.466;2023-01-26T08:26:14;52.30;;;16.83;;
63114;SDS011;49208;50.874;6.466;2023-01-26T08:28:42;52.42;;;17.48;;
63114;SDS011;49208;50.874;6.466;2023-01-26T08:31:08;47.53;;;16.45;;
63114;SDS011;49208;50.874;6.466;2023-01-26T08:33:36;51.35;;;17.00;;
63114;SDS011;49208;50.874;6.466;2023-01-26T08:36:03;49.40;;;16.40;;
63114;SDS011;49208;50.874;6.466;2023-01-26T08:38:31;53.40;;;18.13;;
63114;SDS011;49208;50.874;6.466;2023-01-26T08:40:57;56.80;;;18.08;;
63114;SDS011;49208;50.874;6.466;2023-01-26T08:43:24;49.72;;;19.55;;
63114;SDS011;49208;50.874;6.466;2023-01-26T08:45:49;56.50;;;17.02;;
63114;SDS011;49208;50.874;6.466;2023-01-26T08:48:15;50.97;;;18.00;;
63114;SDS011;49208;50.874;6.466;2023-01-26T08:50:40;41.65;;;15.35;;
63114;SDS011;49208;50.874;6.466;2023-01-26T08:53:05;51.83;;;17.48;;
63114;SDS011;49208;50.874;6.466;2023-01-26T08:55:31;56.05;;;17.00;;
63114;SDS011;49208;50.874;6.466;2023-01-26T08:57:57;53.50;;;17.52;;
63114;SDS011;49208;50.874;6.466;2023-01-26T09:00:23;44.78;;;16.08;;
63114;SDS011;49208;50.874;6.466;2023-01-26T09:02:49;43.00;;;15.68;;
63114;SDS011;49208;50.874;6.466;2023-01-26T09:05:21;45.60;;;17.60;;
63114;SDS011;49208;50.874;6.466;2023-01-26T09:07:47;37.25;;;15.80;;
63114;SDS011;49208;50.874;6.466;2023-01-26T09:10:12;47.83;;;16.92;;
63114;SDS011;49208;50.874;6.466;2023-01-26T09:12:37;47.22;;;16.52;;
63114;SDS011;49208;50.874;6.466;2023-01-26T09:15:03;50.00;;;17.20;;
63114;SDS011;49208;50.874;6.466;2023-01-26T09:17:29;45.45;;;16.52;;
63114;SDS011;49208;50.874;6.466;2023-01-26T09:19:54;50.97;;;16.63;;
63114;SDS011;49208;50.874;6.466;2023-01-26T09:22:20;37.60;;;16.63;;
63114;SDS011;49208;50.874;6.466;2023-01-26T09:24:45;54.40;;;17.77;;
63114;SDS011;49208;50.874;6.466;2023-01-26T09:27:11;51.55;;;17.98;;
63114;SDS011;49208;50.874;6.466;2023-01-26T09:29:36;42.38;;;15.73;;
63114;SDS011;49208;50.874;6.466;2023-01-26T09:32:01;47.22;;;16.77;;
63114;SDS011;49208;50.874;6.466;2023-01-26T09:34:27;48.55;;;15.57;;
63114;SDS011;49208;50.874;6.466;2023-01-26T09:36:52;44.95;;;15.20;;
63114;SDS011;49208;50.874;6.466;2023-01-26T09:39:18;38.60;;;14.95;;
63114;SDS011;49208;50.874;6.466;2023-01-26T09:42:03;38.45;;;14.43;;
63114;SDS011;49208;50.874;6.466;2023-01-26T09:44:44;43.08;;;16.30;;
63114;SDS011;49208;50.874;6.466;2023-01-26T09:47:29;47.85;;;15.60;;
63114;SDS011;49208;50.874;6.466;2023-01-26T09:50:01;48.50;;;15.90;;
63114;SDS011;49208;50.874;6.466;2023-01-26T09:52:34;40.60;;;15.25;;
63114;SDS011;49208;50.874;6.466;2023-01-26T09:55:11;47.17;;;16.10;;
63114;SDS011;49208;50.874;6.466;2023-01-26T10:00:34;50.17;;;17.40;;
63114;SDS011;49208;50.874;6.466;2023-01-26T10:08:55;53.03;;;16.58;;
63114;SDS011;49208;50.874;6.466;2023-01-26T10:13:58;47.83;;;16.35;;
63114;SDS011;49208;50.874;6.466;2023-01-26T10:16:28;48.83;;;16.75;;
63114;SDS011;49208;50.874;6.466;2023-01-26T10:19:04;48.25;;;16.27;;
63114;SDS011;49208;50.874;6.466;2023-01-26T10:21:38;48.95;;;17.10;;
63114;SDS011;49208;50.874;6.466;2023-01-26T10:24:08;42.78;;;16.48;;
63114;SDS011;49208;50.874;6.466;2023-01-26T10:26:36;55.83;;;18.63;;
63114;SDS011;49208;50.874;6.466;2023-01-26T10:29:01;50.38;;;16.75;;
63114;SDS011;49208;50.874;6.466;2023-01-26T10:31:29;54.10;;;19.48;;
63114;SDS011;49208;50.874;6.466;2023-01-26T10:36:39;56.08;;;18.25;;
63114;SDS011;49208;50.874;6.466;2023-01-26T10:39:10;55.80;;;18.73;;
63114;SDS011;49208;50.874;6.466;2023-01-26T10:41:37;67.10;;;18.02;;
63114;SDS011;49208;50.874;6.466;2023-01-26T10:44:17;54.00;;;18.95;;
63114;SDS011;49208;50.874;6.466;2023-01-26T10:46:47;56.28;;;17.67;;
63114;SDS011;49208;50.874;6.466;2023-01-26T10:49:46;51.67;;;17.02;;
63114;SDS011;49208;50.874;6.466;2023-01-26T10:57:43;50.72;;;16.77;;
63114;SDS011;49208;50.874;6.466;2023-01-26T11:02:51;41.03;;;14.82;;
63114;SDS011;49208;50.874;6.466;2023-01-26T11:05:20;52.03;;;16.80;;
63114;SDS011;49208;50.874;6.466;2023-01-26T11:07:48;48.30;;;15.35;;
63114;SDS011;49208;50.874;6.466;2023-01-26T11:10:16;56.95;;;17.10;;
63114;SDS011;49208;50.874;6.466;2023-01-26T11:12:42;49.97;;;18.97;;
63114;SDS011;49208;50.874;6.466;2023-01-26T11:15:15;46.75;;;15.13;;
63114;SDS011;49208;50.874;6.466;2023-01-26T11:18:01;46.60;;;17.23;;
63114;SDS011;49208;50.874;6.466;2023-01-26T11:26:33;60.55;;;16.80;;
63114;SDS011;49208;50.874;6.466;2023-01-26T11:37:46;52.40;;;16.27;;
63114;SDS011;49208;50.874;6.466;2023-01-26T11:40:34;47.90;;;17.30;;
63114;SDS011;49208;50.874;6.466;2023-01-26T11:48:42;47.70;;;18.23;;
63114;SDS011;49208;50.874;6.466;2023-01-26T11:59:32;52.15;;;16.98;;
63114;SDS011;49208;50.874;6.466;2023-01-26T12:02:14;41.63;;;15.60;;
63114;SDS011;49208;50.874;6.466;2023-01-26T12:05:11;51.13;;;17.45;;
63114;SDS011;49208;50.874;6.466;2023-01-26T12:07:56;44.80;;;16.00;;
63114;SDS011;49208;50.874;6.466;2023-01-26T12:10:32;52.17;;;17.13;;
63114;SDS011;49208;50.874;6.466;2023-01-26T12:13:14;49.65;;;16.33;;
63114;SDS011;49208;50.874;6.466;2023-01-26T12:15:53;38.88;;;15.23;;
63114;SDS011;49208;50.874;6.466;2023-01-26T12:18:40;42.85;;;13.52;;
63114;SDS011;49208;50.874;6.466;2023-01-26T12:21:12;31.63;;;13.02;;
63114;SDS011;49208;50.874;6.466;2023-01-26T12:26:09;32.40;;;13.55;;
63114;SDS011;49208;50.874;6.466;2023-01-26T12:28:46;34.90;;;12.48;;
63114;SDS011;49208;50.874;6.466;2023-01-26T12:31:32;37.83;;;12.63;;
63114;SDS011;49208;50.874;6.466;2023-01-26T12:36:50;36.70;;;13.05;;
63114;SDS011;49208;50.874;6.466;2023-01-26T12:42:16;34.40;;;11.52;;
63114;SDS011;49208;50.874;6.466;2023-01-26T12:44:49;34.80;;;14.20;;
63114;SDS011;49208;50.874;6.466;2023-01-26T12:50:28;34.88;;;12.18;;
63114;SDS011;49208;50.874;6.466;2023-01-26T12:56:16;42.08;;;13.15;;
63114;SDS011;49208;50.874;6.466;2023-01-26T12:58:54;35.00;;;12.40;;
63114;SDS011;49208;50.874;6.466;2023-01-26T13:01:23;32.78;;;13.55;;
63114;SDS011;49208;50.874;6.466;2023-01-26T13:06:22;33.13;;;11.67;;
63114;SDS011;49208;50.874;6.466;2023-01-26T13:14:27;32.17;;;11.10;;
63114;SDS011;49208;50.874;6.466;2023-01-26T13:16:53;35.42;;;13.02;;
63114;SDS011;49208;50.874;6.466;2023-01-26T13:30:03;21.90;;;10.52;;
63114;SDS011;49208;50.874;6.466;2023-01-26T13:35:13;23.58;;;8.32;;
63114;SDS011;49208;50.874;6.466;2023-01-26T13:40:48;19.45;;;9.05;;
63114;SDS011;49208;50.874;6.466;2023-01-26T13:45:45;18.33;;;8.27;;
63114;SDS011;49208;50.874;6.466;2023-01-26T13:48:19;19.58;;;7.88;;
63114;SDS011;49208;50.874;6.466;2023-01-26T13:50:58;17.35;;;7.95;;
63114;SDS011;49208;50.874;6.466;2023-01-26T13:53:33;24.77;;;8.98;;
63114;SDS011;49208;50.874;6.466;2023-01-26T13:56:06;22.17;;;9.05;;
63114;SDS011;49208;50.874;6.466;2023-01-26T13:58:45;17.13;;;6.90;;
63114;SDS011;49208;50.874;6.466;2023-01-26T14:01:11;20.90;;;8.63;;
63114;SDS011;49208;50.874;6.466;2023-01-26T14:03:38;15.50;;;7.32;;
63114;SDS011;49208;50.874;6.466;2023-01-26T14:06:05;16.27;;;7.45;;
63114;SDS011;49208;50.874;6.466;2023-01-26T14:08:32;22.75;;;7.45;;
63114;SDS011;49208;50.874;6.466;2023-01-26T14:10:59;21.15;;;8.77;;
63114;SDS011;49208;50.874;6.466;2023-01-26T14:13:31;18.48;;;7.18;;
63114;SDS011;49208;50.874;6.466;2023-01-26T14:16:00;17.33;;;7.18;;
63114;SDS011;49208;50.874;6.466;2023-01-26T14:18:26;18.02;;;7.15;;
63114;SDS011;49208;50.874;6.466;2023-01-26T14:21:05;16.38;;;5.93;;
63114;SDS011;49208;50.874;6.466;2023-01-26T14:23:41;16.17;;;6.45;;
63114;SDS011;49208;50.874;6.466;2023-01-26T14:26:11;13.52;;;6.45;;
63114;SDS011;49208;50.874;6.466;2023-01-26T14:28:45;14.93;;;5.93;;
63114;SDS011;49208;50.874;6.466;2023-01-26T14:33:49;11.38;;;5.05;;
63114;SDS011;49208;50.874;6.466;2023-01-26T14:36:20;13.73;;;5.32;;
63114;SDS011;49208;50.874;6.466;2023-01-26T14:38:46;11.98;;;6.43;;
63114;SDS011;49208;50.874;6.466;2023-01-26T14:43:44;16.40;;;7.38;;
63114;SDS011;49208;50.874;6.466;2023-01-26T14:46:21;36.22;;;20.23;;
63114;SDS011;49208;50.874;6.466;2023-01-26T14:49:11;20.40;;;13.43;;
63114;SDS011;49208;50.874;6.466;2023-01-26T14:51:42;11.50;;;7.25;;
63114;SDS011;49208;50.874;6.466;2023-01-26T14:54:24;14.23;;;6.90;;
63114;SDS011;49208;50.874;6.466;2023-01-26T14:56:54;12.98;;;6.45;;
63114;SDS011;49208;50.874;6.466;2023-01-26T14:59:27;12.32;;;6.07;;
63114;SDS011;49208;50.874;6.466;2023-01-26T15:04:56;11.35;;;5.40;;
63114;SDS011;49208;50.874;6.466;2023-01-26T15:07:36;11.05;;;5.18;;
63114;SDS011;49208;50.874;6.466;2023-01-26T15:15:37;20.45;;;7.30;;
63114;SDS011;49208;50.874;6.466;2023-01-26T15:18:18;16.90;;;6.90;;
63114;SDS011;49208;50.874;6.466;2023-01-26T15:23:41;17.52;;;7.75;;
63114;SDS011;49208;50.874;6.466;2023-01-26T15:26:09;19.98;;;7.72;;
63114;SDS011;49208;50.874;6.466;2023-01-26T15:28:38;27.52;;;10.20;;
63114;SDS011;49208;50.874;6.466;2023-01-26T15:31:04;23.90;;;9.43;;
63114;SDS011;49208;50.874;6.466;2023-01-26T15:33:50;23.83;;;9.85;;
63114;SDS011;49208;50.874;6.466;2023-01-26T15:36:24;29.45;;;10.07;;
63114;SDS011;49208;50.874;6.466;2023-01-26T15:41:37;25.85;;;9.90;;
63114;SDS011;49208;50.874;6.466;2023-01-26T15:44:03;28.45;;;11.15;;
63114;SDS011;49208;50.874;6.466;2023-01-26T15:46:28;25.38;;;10.82;;
63114;SDS011;49208;50.874;6.466;2023-01-26T15:48:54;34.33;;;11.18;;
63114;SDS011;49208;50.874;6.466;2023-01-26T15:51:20;34.72;;;12.65;;
63114;SDS011;49208;50.874;6.466;2023-01-26T15:53:45;29.35;;;12.70;;
63114;SDS011;49208;50.874;6.466;2023-01-26T15:56:12;37.63;;;12.70;;
63114;SDS011;49208;50.874;6.466;2023-01-26T15:58:39;39.65;;;13.00;;
63114;SDS011;49208;50.874;6.466;2023-01-26T16:01:05;29.85;;;12.27;;
63114;SDS011;49208;50.874;6.466;2023-01-26T16:03:31;32.83;;;14.17;;
63114;SDS011;49208;50.874;6.466;2023-01-26T16:05:57;32.60;;;13.68;;
63114;SDS011;49208;50.874;6.466;2023-01-26T16:08:22;54.15;;;15.20;;
63114;SDS011;49208;50.874;6.466;2023-01-26T16:10:47;45.20;;;17.88;;
63114;SDS011;49208;50.874;6.466;2023-01-26T16:13:15;31.40;;;13.38;;
63114;SDS011;49208;50.874;6.466;2023-01-26T16:15:43;41.63;;;17.10;;
63114;SDS011;49208;50.874;6.466;2023-01-26T16:18:11;39.92;;;16.98;;
63114;SDS011;49208;50.874;6.466;2023-01-26T16:20:37;38.03;;;14.68;;
63114;SDS011;49208;50.874;6.466;2023-01-26T16:23:15;39.47;;;14.90;;
63114;SDS011;49208;50.874;6.466;2023-01-26T16:25:46;52.55;;;17.42;;
63114;SDS011;49208;50.874;6.466;2023-01-26T16:28:14;48.92;;;16.95;;
63114;SDS011;49208;50.874;6.466;2023-01-26T16:30:43;37.75;;;14.43;;
63114;SDS011;49208;50.874;6.466;2023-01-26T16:33:10;42.58;;;17.02;;
63114;SDS011;49208;50.874;6.466;2023-01-26T16:38:03;43.25;;;17.13;;
63114;SDS011;49208;50.874;6.466;2023-01-26T16:40:31;38.88;;;17.88;;
63114;SDS011;49208;50.874;6.466;2023-01-26T16:42:57;38.70;;;17.08;;
63114;SDS011;49208;50.874;6.466;2023-01-26T16:45:24;42.33;;;15.50;;
63114;SDS011;49208;50.874;6.466;2023-01-26T16:47:51;46.55;;;16.27;;
63114;SDS011;49208;50.874;6.466;2023-01-26T16:50:19;47.65;;;17.70;;
63114;SDS011;49208;50.874;6.466;2023-01-26T16:52:45;41.97;;;15.43;;
63114;SDS011;49208;50.874;6.466;2023-01-26T16:55:11;36.47;;;14.82;;
63114;SDS011;49208;50.874;6.466;2023-01-26T16:57:38;40.22;;;15.23;;
63114;SDS011;49208;50.874;6.466;2023-01-26T17:00:06;47.28;;;18.02;;
63114;SDS011;49208;50.874;6.466;2023-01-26T17:02:37;50.20;;;18.65;;
63114;SDS011;49208;50.874;6.466;2023-01-26T17:05:03;43.88;;;16.00;;
63114;SDS011;49208;50.874;6.466;2023-01-26T17:07:28;41.95;;;17.10;;
63114;SDS011;49208;50.874;6.466;2023-01-26T17:09:53;54.38;;;22.88;;
63114;SDS011;49208;50.874;6.466;2023-01-26T17:12:19;53.05;;;19.25;;
63114;SDS011;49208;50.874;6.466;2023-01-26T17:14:44;42.30;;;18.08;;
63114;SDS011;49208;50.874;6.466;2023-01-26T17:17:10;44.67;;;17.10;;
63114;SDS011;49208;50.874;6.466;2023-01-26T17:19:35;63.10;;;20.88;;
63114;SDS011;49208;50.874;6.466;2023-01-26T17:22:00;45.38;;;18.48;;
63114;SDS011;49208;50.874;6.466;2023-01-26T17:24:27;53.95;;;18.83;;
63114;SDS011;49208;50.874;6.466;2023-01-26T17:26:53;55.78;;;21.85;;
63114;SDS011;49208;50.874;6.466;2023-01-26T17:29:18;50.15;;;19.50;;
63114;SDS011;49208;50.874;6.466;2023-01-26T17:31:43;47.97;;;19.38;;
63114;SDS011;49208;50.874;6.466;2023-01-26T17:34:09;51.30;;;18.77;;
63114;SDS011;49208;50.874;6.466;2023-01-26T17:36:34;45.45;;;16.40;;
63114;SDS011;49208;50.874;6.466;2023-01-26T17:39:01;57.47;;;18.65;;
63114;SDS011;49208;50.874;6.466;2023-01-26T17:41:26;47.83;;;18.00;;
63114;SDS011;49208;50.874;6.466;2023-01-26T17:43:52;54.83;;;18.48;;
63114;SDS011;49208;50.874;6.466;2023-01-26T17:46:18;43.70;;;17.83;;
63114;SDS011;49208;50.874;6.466;2023-01-26T17:48:45;42.92;;;16.60;;
63114;SDS011;49208;50.874;6.466;2023-01-26T17:51:15;54.00;;;19.65;;
63114;SDS011;49208;50.874;6.466;2023-01-26T17:53:42;51.45;;;19.92;;
63114;SDS011;49208;50.874;6.466;2023-01-26T17:56:11;33.20;;;15.48;;
63114;SDS011;49208;50.874;6.466;2023-01-26T17:58:38;44.22;;;16.55;;
63114;SDS011;49208;50.874;6.466;2023-01-26T18:01:06;42.65;;;16.00;;
63114;SDS011;49208;50.874;6.466;2023-01-26T18:03:32;40.22;;;14.00;;
63114;SDS011;49208;50.874;6.466;2023-01-26T18:05:58;54.60;;;17.77;;
63114;SDS011;49208;50.874;6.466;2023-01-26T18:08:24;54.25;;;19.17;;
63114;SDS011;49208;50.874;6.466;2023-01-26T18:11:00;47.00;;;19.30;;
63114;SDS011;49208;50.874;6.466;2023-01-26T18:13:27;44.70;;;16.15;;
63114;SDS011;49208;50.874;6.466;2023-01-26T18:15:52;49.83;;;17.63;;
63114;SDS011;49208;50.874;6.466;2023-01-26T18:18:19;55.75;;;21.63;;
63114;SDS011;49208;50.874;6.466;2023-01-26T18:20:46;51.67;;;21.73;;
63114;SDS011;49208;50.874;6.466;2023-01-26T18:23:11;74.07;;;34.85;;
63114;SDS011;49208;50.874;6.466;2023-01-26T18:25:36;64.57;;;26.73;;
63114;SDS011;49208;50.874;6.466;2023-01-26T18:28:02;59.22;;;23.75;;
63114;SDS011;49208;50.874;6.466;2023-01-26T18:30:27;64.28;;;27.08;;
63114;SDS011;49208;50.874;6.466;2023-01-26T18:32:53;61.67;;;24.23;;
63114;SDS011;49208;50.874;6.466;2023-01-26T18:35:18;56.72;;;19.83;;
63114;SDS011;49208;50.874;6.466;2023-01-26T18:37:44;51.67;;;17.05;;
63114;SDS011;49208;50.874;6.466;2023-01-26T18:40:09;66.75;;;23.10;;
63114;SDS011;49208;50.874;6.466;2023-01-26T18:42:37;66.10;;;21.42;;
63114;SDS011;49208;50.874;6.466;2023-01-26T18:45:02;65.00;;;23.10;;
63114;SDS011;49208;50.874;6.466;2023-01-26T18:47:29;44.40;;;18.08;;
63114;SDS011;49208;50.874;6.466;2023-01-26T18:49:55;48.83;;;19.52;;
63114;SDS011;49208;50.874;6.466;2023-01-26T18:52:20;57.83;;;21.20;;
63114;SDS011;49208;50.874;6.466;2023-01-26T18:54:46;50.08;;;21.58;;
63114;SDS011;49208;50.874;6.466;2023-01-26T18:57:12;56.25;;;19.83;;
63114;SDS011;49208;50.874;6.466;2023-01-26T18:59:38;55.15;;;19.15;;
63114;SDS011;49208;50.874;6.466;2023-01-26T19:02:03;54.58;;;19.60;;
63114;SDS011;49208;50.874;6.466;2023-01-26T19:04:29;47.22;;;17.20;;
63114;SDS011;49208;50.874;6.466;2023-01-26T19:06:54;50.42;;;17.25;;
63114;SDS011;49208;50.874;6.466;2023-01-26T19:09:20;43.88;;;17.13;;
63114;SDS011;49208;50.874;6.466;2023-01-26T19:11:45;58.63;;;21.90;;
63114;SDS011;49208;50.874;6.466;2023-01-26T19:14:11;49.28;;;20.55;;
63114;SDS011;49208;50.874;6.466;2023-01-26T19:16:36;49.25;;;20.45;;
63114;SDS011;49208;50.874;6.466;2023-01-26T19:19:02;50.67;;;18.70;;
63114;SDS011;49208;50.874;6.466;2023-01-26T19:21:29;50.45;;;19.05;;
63114;SDS011;49208;50.874;6.466;2023-01-26T19:23:55;48.05;;;19.33;;
63114;SDS011;49208;50.874;6.466;2023-01-26T19:26:23;49.63;;;18.08;;
63114;SDS011;49208;50.874;6.466;2023-01-26T19:28:50;55.20;;;18.80;;
63114;SDS011;49208;50.874;6.466;2023-01-26T19:31:17;43.05;;;18.02;;
63114;SDS011;49208;50.874;6.466;2023-01-26T19:33:51;53.45;;;18.38;;
63114;SDS011;49208;50.874;6.466;2023-01-26T19:36:21;39.88;;;17.48;;
63114;SDS011;49208;50.874;6.466;2023-01-26T19:38:47;45.55;;;20.63;;
63114;SDS011;49208;50.874;6.466;2023-01-26T19:41:13;45.17;;;19.73;;
63114;SDS011;49208;50.874;6.466;2023-01-26T19:43:39;45.67;;;19.00;;
63114;SDS011;49208;50.874;6.466;2023-01-26T19:46:04;46.53;;;21.05;;
63114;SDS011;49208;50.874;6.466;2023-01-26T19:48:32;39.95;;;17.23;;
63114;SDS011;49208;50.874;6.466;2023-01-26T19:53:33;45.90;;;18.58;;
63114;SDS011;49208;50.874;6.466;2023-01-26T19:56:25;50.28;;;21.40;;
63114;SDS011;49208;50.874;6.466;2023-01-26T19:58:54;54.65;;;22.50;;
63114;SDS011;49208;50.874;6.466;2023-01-26T20:01:25;43.83;;;19.10;;
63114;SDS011;49208;50.874;6.466;2023-01-26T20:03:52;47.58;;;17.42;;
63114;SDS011;49208;50.874;6.466;2023-01-26T20:06:20;44.55;;;17.92;;
63114;SDS011;49208;50.874;6.466;2023-01-26T20:08:47;45.75;;;18.02;;
63114;SDS011;49208;50.874;6.466;2023-01-26T20:11:13;41.92;;;17.30;;
63114;SDS011;49208;50.874;6.466;2023-01-26T20:13:39;49.65;;;17.83;;
63114;SDS011;49208;50.874;6.466;2023-01-26T20:16:05;44.05;;;18.02;;
63114;SDS011;49208;50.874;6.466;2023-01-26T20:18:32;49.83;;;18.90;;
63114;SDS011;49208;50.874;6.466;2023-01-26T20:20:58;47.55;;;17.45;;
63114;SDS011;49208;50.874;6.466;2023-01-26T20:23:23;47.20;;;18.13;;
63114;SDS011;49208;50.874;6.466;2023-01-26T20:25:49;38.30;;;17.02;;
63114;SDS011;49208;50.874;6.466;2023-01-26T20:28:15;41.30;;;17.17;;
63114;SDS011;49208;50.874;6.466;2023-01-26T20:30:42;43.25;;;16.95;;
63114;SDS011;49208;50.874;6.466;2023-01-26T20:33:08;48.55;;;18.42;;
63114;SDS011;49208;50.874;6.466;2023-01-26T20:35:35;47.50;;;17.17;;
63114;SDS011;49208;50.874;6.466;2023-01-26T20:38:03;46.75;;;17.50;;
63114;SDS011;49208;50.874;6.466;2023-01-26T20:40:28;42.22;;;16.23;;
63114;SDS011;49208;50.874;6.466;2023-01-26T20:42:54;40.72;;;16.90;;
63114;SDS011;49208;50.874;6.466;2023-01-26T20:45:20;50.25;;;19.17;;
63114;SDS011;49208;50.874;6.466;2023-01-26T20:47:46;44.83;;;18.13;;
63114;SDS011;49208;50.874;6.466;2023-01-26T20:50:12;54.30;;;21.38;;
63114;SDS011;49208;50.874;6.466;2023-01-26T20:52:38;54.72;;;21.42;;
63114;SDS011;49208;50.874;6.466;2023-01-26T20:55:04;48.97;;;21.25;;
63114;SDS011;49208;50.874;6.466;2023-01-26T20:57:35;57.97;;;24.15;;
63114;SDS011;49208;50.874;6.466;2023-01-26T21:00:01;56.38;;;21.98;;
63114;SDS011;49208;50.874;6.466;2023-01-26T21:02:26;47.05;;;19.85;;
63114;SDS011;49208;50.874;6.466;2023-01-26T21:04:52;49.92;;;18.90;;
63114;SDS011;49208;50.874;6.466;2023-01-26T21:07:18;51.55;;;19.17;;
63114;SDS011;49208;50.874;6.466;2023-01-26T21:09:45;49.25;;;19.00;;
63114;SDS011;49208;50.874;6.466;2023-01-26T21:12:11;39.15;;;17.02;;
63114;SDS011;49208;50.874;6.466;2023-01-26T21:14:36;48.50;;;21.40;;
63114;SDS011;49208;50.874;6.466;2023-01-26T21:17:01;57.17;;;20.15;;
63114;SDS011;49208;50.874;6.466;2023-01-26T21:19:27;51.67;;;19.02;;
63114;SDS011;49208;50.874;6.466;2023-01-26T21:21:53;49.13;;;19.77;;
63114;SDS011;49208;50.874;6.466;2023-01-26T21:24:18;47.95;;;17.77;;
63114;SDS011;49208;50.874;6.466;2023-01-26T21:26:43;74.63;;;25.48;;
63114;SDS011;49208;50.874;6.466;2023-01-26T21:29:10;56.67;;;23.60;;
63114;SDS011;49208;50.874;6.466;2023-01-26T21:31:38;49.65;;;19.77;;
63114;SDS011;49208;50.874;6.466;2023-01-26T21:34:04;43.35;;;18.77;;
63114;SDS011;49208;50.874;6.466;2023-01-26T21:36:30;47.75;;;18.42;;
63114;SDS011;49208;50.874;6.466;2023-01-26T21:38:57;50.03;;;20.15;;
63114;SDS011;49208;50.874;6.466;2023-01-26T21:41:27;46.38;;;17.52;;
63114;SDS011;49208;50.874;6.466;2023-01-26T21:44:13;40.38;;;15.00;;
63114;SDS011;49208;50.874;6.466;2023-01-26T21:46:43;40.08;;;14.05;;
63114;SDS011;49208;50.874;6.466;2023-01-26T21:49:10;38.35;;;14.07;;
63114;SDS011;49208;50.874;6.466;2023-01-26T21:51:36;42.67;;;15.13;;
63114;SDS011;49208;50.874;6.466;2023-01-26T21:54:20;29.42;;;12.20;;
63114;SDS011;49208;50.874;6.466;2023-01-26T21:56:46;38.83;;;13.07;;
63114;SDS011;49208;50.874;6.466;2023-01-26T21:59:12;34.10;;;12.98;;
63114;SDS011;49208;50.874;6.466;2023-01-26T22:01:48;31.10;;;13.07;;
63114;SDS011;49208;50.874;6.466;2023-01-26T22:04:20;36.75;;;14.70;;
63114;SDS011;49208;50.874;6.466;2023-01-26T22:06:50;27.60;;;12.48;;
63114;SDS011;49208;50.874;6.466;2023-01-26T22:09:16;30.52;;;13.48;;
63114;SDS011;49208;50.874;6.466;2023-01-26T22:11:42;25.95;;;12.38;;
63114;SDS011;49208;50.874;6.466;2023-01-26T22:14:12;25.13;;;10.95;;
63114;SDS011;49208;50.874;6.466;2023-01-26T22:16:42;24.67;;;11.57;;
63114;SDS011;49208;50.874;6.466;2023-01-26T22:19:08;33.15;;;13.23;;
63114;SDS011;49208;50.874;6.466;2023-01-26T22:21:35;32.50;;;13.80;;
63114;SDS011;49208;50.874;6.466;2023-01-26T22:24:01;30.58;;;13.65;;
63114;SDS011;49208;50.874;6.466;2023-01-26T22:26:26;37.25;;;13.95;;
63114;SDS011;49208;50.874;6.466;2023-01-26T22:28:52;34.35;;;12.77;;
63114;SDS011;49208;50.874;6.466;2023-01-26T22:33:47;28.83;;;11.32;;
63114;SDS011;49208;50.874;6.466;2023-01-26T22:36:13;30.47;;;11.53;;
63114;SDS011;49208;50.874;6.466;2023-01-26T22:38:39;31.83;;;12.50;;
63114;SDS011;49208;50.874;6.466;2023-01-26T22:41:06;24.00;;;12.18;;
63114;SDS011;49208;50.874;6.466;2023-01-26T22:43:31;25.13;;;11.27;;
63114;SDS011;49208;50.874;6.466;2023-01-26T22:46:01;22.63;;;10.68;;
63114;SDS011;49208;50.874;6.466;2023-01-26T22:48:29;24.20;;;11.38;;
63114;SDS011;49208;50.874;6.466;2023-01-26T22:50:55;24.73;;;11.25;;
63114;SDS011;49208;50.874;6.466;2023-01-26T22:53:20;23.63;;;9.90;;
63114;SDS011;49208;50.874;6.466;2023-01-26T22:55:48;24.42;;;9.30;;
63114;SDS011;49208;50.874;6.466;2023-01-26T22:58:16;22.63;;;10.35;;
